sensor_id;sensor_type;location;lat;lon;timestamp;temperature;humidity
2749;DHT22;1382;52.142;11.618;2023-07-30T00:02:00;23.70;47.10
2749;DHT22;1382;52.142;11.618;2023-07-30T00:04:26;23.70;47.60
2749;DHT22;1382;52.142;11.618;2023-07-30T00:06:54;23.70;48.00
2749;DHT22;1382;52.142;11.618;2023-07-30T00:09:21;23.60;47.50
2749;DHT22;1382;52.142;11.618;2023-07-30T00:11:48;23.50;47.60
2749;DHT22;1382;52.142;11.618;2023-07-30T00:14:15;23.50;47.60
2749;DHT22;1382;52.142;11.618;2023-07-30T00:16:42;23.50;47.70
2749;DHT22;1382;52.142;11.618;2023-07-30T00:19:09;23.40;47.60
2749;DHT22;1382;52.142;11.618;2023-07-30T00:21:36;23.40;47.60
2749;DHT22;1382;52.142;11.618;2023-07-30T00:24:05;23.40;47.80
2749;DHT22;1382;52.142;11.618;2023-07-30T00:26:31;23.30;47.70
2749;DHT22;1382;52.142;11.618;2023-07-30T00:28:58;23.30;47.70
2749;DHT22;1382;52.142;11.618;2023-07-30T00:31:25;23.30;47.70
2749;DHT22;1382;52.142;11.618;2023-07-30T00:33:52;23.20;47.80
2749;DHT22;1382;52.142;11.618;2023-07-30T00:36:19;23.20;48.40
2749;DHT22;1382;52.142;11.618;2023-07-30T00:38:45;23.20;48.60
2749;DHT22;1382;52.142;11.618;2023-07-30T00:41:14;23.10;49.30
2749;DHT22;1382;52.142;11.618;2023-07-30T00:43:40;23.10;48.10
2749;DHT22;1382;52.142;11.618;2023-07-30T00:46:08;23.10;48.40
2749;DHT22;1382;52.142;11.618;2023-07-30T00:48:35;23.10;48.30
2749;DHT22;1382;52.142;11.618;2023-07-30T00:51:02;23.10;48.40
2749;DHT22;1382;52.142;11.618;2023-07-30T00:53:29;23.00;48.10
2749;DHT22;1382;52.142;11.618;2023-07-30T00:55:56;23.00;48.00
2749;DHT22;1382;52.142;11.618;2023-07-30T00:58:25;23.10;48.80
2749;DHT22;1382;52.142;11.618;2023-07-30T01:00:53;23.00;48.10
2749;DHT22;1382;52.142;11.618;2023-07-30T01:03:21;22.90;48.60
2749;DHT22;1382;52.142;11.618;2023-07-30T01:05:48;22.90;48.60
2749;DHT22;1382;52.142;11.618;2023-07-30T01:08:14;22.90;49.00
2749;DHT22;1382;52.142;11.618;2023-07-30T01:10:41;22.90;48.70
2749;DHT22;1382;52.142;11.618;2023-07-30T01:13:09;22.90;49.40
2749;DHT22;1382;52.142;11.618;2023-07-30T01:15:38;22.90;48.80
2749;DHT22;1382;52.142;11.618;2023-07-30T01:18:06;22.90;48.90
2749;DHT22;1382;52.142;11.618;2023-07-30T01:20:33;22.80;48.80
2749;DHT22;1382;52.142;11.618;2023-07-30T01:23:01;22.80;48.60
2749;DHT22;1382;52.142;11.618;2023-07-30T01:25:30;22.90;48.70
2749;DHT22;1382;52.142;11.618;2023-07-30T01:27:59;22.80;48.90
2749;DHT22;1382;52.142;11.618;2023-07-30T01:30:30;22.70;48.80
2749;DHT22;1382;52.142;11.618;2023-07-30T01:32:59;22.80;48.60
2749;DHT22;1382;52.142;11.618;2023-07-30T01:35:27;22.70;48.40
2749;DHT22;1382;52.142;11.618;2023-07-30T01:37:55;22.60;48.20
2749;DHT22;1382;52.142;11.618;2023-07-30T01:40:23;22.60;48.20
2749;DHT22;1382;52.142;11.618;2023-07-30T01:42:50;22.60;48.20
2749;DHT22;1382;52.142;11.618;2023-07-30T01:45:17;22.60;48.40
2749;DHT22;1382;52.142;11.618;2023-07-30T01:47:44;22.60;48.70
2749;DHT22;1382;52.142;11.618;2023-07-30T01:50:11;22.50;48.70
2749;DHT22;1382;52.142;11.618;2023-07-30T01:52:38;22.50;48.40
2749;DHT22;1382;52.142;11.618;2023-07-30T01:55:06;22.50;48.50
2749;DHT22;1382;52.142;11.618;2023-07-30T01:57:34;22.40;49.20
2749;DHT22;1382;52.142;11.618;2023-07-30T02:00:02;22.40;49.40
2749;DHT22;1382;52.142;11.618;2023-07-30T02:02:29;22.40;49.50
2749;DHT22;1382;52.142;11.618;2023-07-30T02:04:56;22.40;49.60
2749;DHT22;1382;52.142;11.618;2023-07-30T02:07:23;22.40;49.80
2749;DHT22;1382;52.142;11.618;2023-07-30T02:09:49;22.40;49.60
2749;DHT22;1382;52.142;11.618;2023-07-30T02:12:16;22.30;49.40
2749;DHT22;1382;52.142;11.618;2023-07-30T02:14:44;22.30;49.60
2749;DHT22;1382;52.142;11.618;2023-07-30T02:17:11;22.30;49.60
2749;DHT22;1382;52.142;11.618;2023-07-30T02:19:38;22.30;49.80
2749;DHT22;1382;52.142;11.618;2023-07-30T02:22:05;22.30;49.60
2749;DHT22;1382;52.142;11.618;2023-07-30T02:24:32;22.30;49.70
2749;DHT22;1382;52.142;11.618;2023-07-30T02:26:59;22.30;50.20
2749;DHT22;1382;52.142;11.618;2023-07-30T02:29:25;22.30;50.10
2749;DHT22;1382;52.142;11.618;2023-07-30T02:31:54;22.30;50.10
2749;DHT22;1382;52.142;11.618;2023-07-30T02:34:21;22.30;49.80
2749;DHT22;1382;52.142;11.618;2023-07-30T02:36:48;22.40;49.90
2749;DHT22;1382;52.142;11.618;2023-07-30T02:39:15;22.30;49.70
2749;DHT22;1382;52.142;11.618;2023-07-30T02:41:42;22.30;50.10
2749;DHT22;1382;52.142;11.618;2023-07-30T02:44:09;22.30;50.00
2749;DHT22;1382;52.142;11.618;2023-07-30T02:46:35;22.30;50.10
2749;DHT22;1382;52.142;11.618;2023-07-30T02:49:03;22.30;50.30
2749;DHT22;1382;52.142;11.618;2023-07-30T02:51:30;22.30;49.90
2749;DHT22;1382;52.142;11.618;2023-07-30T02:53:58;22.30;50.10
2749;DHT22;1382;52.142;11.618;2023-07-30T02:56:24;22.30;49.60
2749;DHT22;1382;52.142;11.618;2023-07-30T02:58:51;22.30;49.60
2749;DHT22;1382;52.142;11.618;2023-07-30T03:01:18;22.20;49.50
2749;DHT22;1382;52.142;11.618;2023-07-30T03:03:45;22.20;49.50
2749;DHT22;1382;52.142;11.618;2023-07-30T03:06:13;22.20;49.20
2749;DHT22;1382;52.142;11.618;2023-07-30T03:08:40;22.20;49.10
2749;DHT22;1382;52.142;11.618;2023-07-30T03:11:07;22.20;49.00
2749;DHT22;1382;52.142;11.618;2023-07-30T03:13:33;22.20;48.70
2749;DHT22;1382;52.142;11.618;2023-07-30T03:16:00;22.20;48.30
2749;DHT22;1382;52.142;11.618;2023-07-30T03:18:27;22.20;48.90
2749;DHT22;1382;52.142;11.618;2023-07-30T03:20:58;22.10;49.40
2749;DHT22;1382;52.142;11.618;2023-07-30T03:23:26;22.10;49.80
2749;DHT22;1382;52.142;11.618;2023-07-30T03:25:53;22.10;49.30
2749;DHT22;1382;52.142;11.618;2023-07-30T03:28:20;22.10;48.90
2749;DHT22;1382;52.142;11.618;2023-07-30T03:30:47;22.00;48.80
2749;DHT22;1382;52.142;11.618;2023-07-30T03:33:13;22.00;49.30
2749;DHT22;1382;52.142;11.618;2023-07-30T03:35:40;22.00;49.10
2749;DHT22;1382;52.142;11.618;2023-07-30T03:38:07;22.00;49.30
2749;DHT22;1382;52.142;11.618;2023-07-30T03:40:35;22.00;49.30
2749;DHT22;1382;52.142;11.618;2023-07-30T03:43:02;22.00;49.70
2749;DHT22;1382;52.142;11.618;2023-07-30T03:45:29;22.00;49.70
2749;DHT22;1382;52.142;11.618;2023-07-30T03:47:56;22.00;49.70
2749;DHT22;1382;52.142;11.618;2023-07-30T03:50:22;21.90;50.00
2749;DHT22;1382;52.142;11.618;2023-07-30T03:52:49;21.90;50.20
2749;DHT22;1382;52.142;11.618;2023-07-30T03:55:16;21.90;50.00
2749;DHT22;1382;52.142;11.618;2023-07-30T03:57:44;21.90;50.10
2749;DHT22;1382;52.142;11.618;2023-07-30T04:00:11;21.90;50.40
2749;DHT22;1382;52.142;11.618;2023-07-30T04:02:38;21.90;50.30
2749;DHT22;1382;52.142;11.618;2023-07-30T04:05:06;21.90;50.60
2749;DHT22;1382;52.142;11.618;2023-07-30T04:07:33;21.80;50.50
2749;DHT22;1382;52.142;11.618;2023-07-30T04:10:00;21.80;50.90
2749;DHT22;1382;52.142;11.618;2023-07-30T04:12:27;21.80;50.80
2749;DHT22;1382;52.142;11.618;2023-07-30T04:14:55;21.80;50.80
2749;DHT22;1382;52.142;11.618;2023-07-30T04:17:22;21.80;51.00
2749;DHT22;1382;52.142;11.618;2023-07-30T04:19:49;21.80;50.80
2749;DHT22;1382;52.142;11.618;2023-07-30T04:22:16;21.80;50.90
2749;DHT22;1382;52.142;11.618;2023-07-30T04:24:42;22.00;51.30
2749;DHT22;1382;52.142;11.618;2023-07-30T04:27:09;21.80;51.20
2749;DHT22;1382;52.142;11.618;2023-07-30T04:29:36;21.80;52.00
2749;DHT22;1382;52.142;11.618;2023-07-30T04:32:05;21.80;51.90
2749;DHT22;1382;52.142;11.618;2023-07-30T04:34:32;21.80;51.90
2749;DHT22;1382;52.142;11.618;2023-07-30T04:36:59;21.80;51.80
2749;DHT22;1382;52.142;11.618;2023-07-30T04:39:26;21.80;51.30
2749;DHT22;1382;52.142;11.618;2023-07-30T04:41:53;21.80;51.60
2749;DHT22;1382;52.142;11.618;2023-07-30T04:44:20;21.80;51.90
2749;DHT22;1382;52.142;11.618;2023-07-30T04:46:46;21.80;52.20
2749;DHT22;1382;52.142;11.618;2023-07-30T04:49:15;21.90;52.70
2749;DHT22;1382;52.142;11.618;2023-07-30T04:51:42;21.90;52.10
2749;DHT22;1382;52.142;11.618;2023-07-30T04:54:08;21.90;52.00
2749;DHT22;1382;52.142;11.618;2023-07-30T04:56:36;21.90;51.30
2749;DHT22;1382;52.142;11.618;2023-07-30T04:59:03;21.90;51.60
2749;DHT22;1382;52.142;11.618;2023-07-30T05:01:30;21.90;52.40
2749;DHT22;1382;52.142;11.618;2023-07-30T05:03:57;21.90;52.70
2749;DHT22;1382;52.142;11.618;2023-07-30T05:06:25;21.90;53.00
2749;DHT22;1382;52.142;11.618;2023-07-30T05:08:52;21.90;52.70
2749;DHT22;1382;52.142;11.618;2023-07-30T05:11:18;21.90;53.10
2749;DHT22;1382;52.142;11.618;2023-07-30T05:13:45;21.90;53.60
2749;DHT22;1382;52.142;11.618;2023-07-30T05:16:12;21.90;53.30
2749;DHT22;1382;52.142;11.618;2023-07-30T05:18:39;22.00;53.90
2749;DHT22;1382;52.142;11.618;2023-07-30T05:21:06;22.00;54.40
2749;DHT22;1382;52.142;11.618;2023-07-30T05:23:34;22.00;54.40
2749;DHT22;1382;52.142;11.618;2023-07-30T05:26:00;22.00;54.20
2749;DHT22;1382;52.142;11.618;2023-07-30T05:28:28;22.00;54.00
2749;DHT22;1382;52.142;11.618;2023-07-30T05:30:55;22.10;55.00
2749;DHT22;1382;52.142;11.618;2023-07-30T05:33:21;22.10;54.90
2749;DHT22;1382;52.142;11.618;2023-07-30T05:35:48;22.20;55.40
2749;DHT22;1382;52.142;11.618;2023-07-30T05:38:15;22.20;55.40
2749;DHT22;1382;52.142;11.618;2023-07-30T05:40:43;22.30;55.10
2749;DHT22;1382;52.142;11.618;2023-07-30T05:43:10;22.40;55.90
2749;DHT22;1382;52.142;11.618;2023-07-30T05:45:37;22.50;55.80
2749;DHT22;1382;52.142;11.618;2023-07-30T05:48:04;22.60;55.60
2749;DHT22;1382;52.142;11.618;2023-07-30T05:50:31;22.70;55.30
2749;DHT22;1382;52.142;11.618;2023-07-30T05:52:57;22.80;54.80
2749;DHT22;1382;52.142;11.618;2023-07-30T05:55:24;22.90;54.20
2749;DHT22;1382;52.142;11.618;2023-07-30T05:57:52;23.00;54.20
2749;DHT22;1382;52.142;11.618;2023-07-30T06:00:19;23.10;54.10
2749;DHT22;1382;52.142;11.618;2023-07-30T06:02:46;23.30;53.40
2749;DHT22;1382;52.142;11.618;2023-07-30T06:05:13;23.40;52.70
2749;DHT22;1382;52.142;11.618;2023-07-30T06:07:40;23.40;51.80
2749;DHT22;1382;52.142;11.618;2023-07-30T06:10:07;23.50;51.70
2749;DHT22;1382;52.142;11.618;2023-07-30T06:12:34;23.70;51.60
2749;DHT22;1382;52.142;11.618;2023-07-30T06:15:05;23.80;51.50
2749;DHT22;1382;52.142;11.618;2023-07-30T06:17:32;23.90;51.00
2749;DHT22;1382;52.142;11.618;2023-07-30T06:20:00;24.00;50.40
2749;DHT22;1382;52.142;11.618;2023-07-30T06:22:26;24.10;50.10
2749;DHT22;1382;52.142;11.618;2023-07-30T06:24:53;24.10;49.90
2749;DHT22;1382;52.142;11.618;2023-07-30T06:27:20;24.40;49.80
2749;DHT22;1382;52.142;11.618;2023-07-30T06:29:47;24.50;49.30
2749;DHT22;1382;52.142;11.618;2023-07-30T06:32:15;24.60;49.30
2749;DHT22;1382;52.142;11.618;2023-07-30T06:34:42;24.70;49.30
2749;DHT22;1382;52.142;11.618;2023-07-30T06:37:08;24.80;49.40
2749;DHT22;1382;52.142;11.618;2023-07-30T06:39:35;24.90;49.40
2749;DHT22;1382;52.142;11.618;2023-07-30T06:42:03;25.10;49.50
2749;DHT22;1382;52.142;11.618;2023-07-30T06:44:29;25.20;49.20
2749;DHT22;1382;52.142;11.618;2023-07-30T06:46:56;25.30;48.70
2749;DHT22;1382;52.142;11.618;2023-07-30T06:49:24;25.40;48.70
2749;DHT22;1382;52.142;11.618;2023-07-30T06:51:51;25.70;48.80
2749;DHT22;1382;52.142;11.618;2023-07-30T06:54:18;25.70;48.40
2749;DHT22;1382;52.142;11.618;2023-07-30T06:56:45;25.80;49.10
2749;DHT22;1382;52.142;11.618;2023-07-30T06:59:12;25.90;48.30
2749;DHT22;1382;52.142;11.618;2023-07-30T07:01:39;26.00;47.90
2749;DHT22;1382;52.142;11.618;2023-07-30T07:04:06;26.20;47.70
2749;DHT22;1382;52.142;11.618;2023-07-30T07:06:34;26.20;47.50
2749;DHT22;1382;52.142;11.618;2023-07-30T07:09:01;26.40;47.20
2749;DHT22;1382;52.142;11.618;2023-07-30T07:11:28;26.50;47.10
2749;DHT22;1382;52.142;11.618;2023-07-30T07:13:54;26.60;46.50
2749;DHT22;1382;52.142;11.618;2023-07-30T07:16:21;26.70;47.20
2749;DHT22;1382;52.142;11.618;2023-07-30T07:18:48;26.80;46.80
2749;DHT22;1382;52.142;11.618;2023-07-30T07:21:15;26.80;46.30
2749;DHT22;1382;52.142;11.618;2023-07-30T07:23:43;27.00;45.70
2749;DHT22;1382;52.142;11.618;2023-07-30T07:26:10;27.10;45.70
2749;DHT22;1382;52.142;11.618;2023-07-30T07:28:37;27.10;45.70
2749;DHT22;1382;52.142;11.618;2023-07-30T07:31:04;27.20;45.70
2749;DHT22;1382;52.142;11.618;2023-07-30T07:33:31;27.30;45.90
2749;DHT22;1382;52.142;11.618;2023-07-30T07:36:04;27.40;44.80
2749;DHT22;1382;52.142;11.618;2023-07-30T07:38:31;27.50;44.50
2749;DHT22;1382;52.142;11.618;2023-07-30T07:41:00;27.60;44.90
2749;DHT22;1382;52.142;11.618;2023-07-30T07:43:27;27.70;44.70
2749;DHT22;1382;52.142;11.618;2023-07-30T07:45:54;27.80;44.30
2749;DHT22;1382;52.142;11.618;2023-07-30T07:48:21;27.90;43.90
2749;DHT22;1382;52.142;11.618;2023-07-30T07:50:48;28.00;43.80
2749;DHT22;1382;52.142;11.618;2023-07-30T07:53:14;28.10;42.60
2749;DHT22;1382;52.142;11.618;2023-07-30T07:55:41;28.20;43.00
2749;DHT22;1382;52.142;11.618;2023-07-30T07:58:09;28.20;42.60
2749;DHT22;1382;52.142;11.618;2023-07-30T08:00:36;28.30;42.50
2749;DHT22;1382;52.142;11.618;2023-07-30T08:03:03;28.40;42.50
2749;DHT22;1382;52.142;11.618;2023-07-30T08:05:30;28.40;42.50
2749;DHT22;1382;52.142;11.618;2023-07-30T08:07:57;28.50;42.40
2749;DHT22;1382;52.142;11.618;2023-07-30T08:10:24;28.60;42.50
2749;DHT22;1382;52.142;11.618;2023-07-30T08:12:50;28.60;41.80
2749;DHT22;1382;52.142;11.618;2023-07-30T08:15:19;28.70;42.40
2749;DHT22;1382;52.142;11.618;2023-07-30T08:17:46;28.70;42.50
2749;DHT22;1382;52.142;11.618;2023-07-30T08:20:13;28.90;41.50
2749;DHT22;1382;52.142;11.618;2023-07-30T08:22:40;28.90;41.00
2749;DHT22;1382;52.142;11.618;2023-07-30T08:25:07;29.00;41.40
2749;DHT22;1382;52.142;11.618;2023-07-30T08:27:34;29.00;41.60
2749;DHT22;1382;52.142;11.618;2023-07-30T08:30:00;29.10;40.50
2749;DHT22;1382;52.142;11.618;2023-07-30T08:32:29;29.10;40.20
2749;DHT22;1382;52.142;11.618;2023-07-30T08:34:56;29.20;40.10
2749;DHT22;1382;52.142;11.618;2023-07-30T08:37:22;29.30;40.00
2749;DHT22;1382;52.142;11.618;2023-07-30T08:39:49;29.30;39.80
2749;DHT22;1382;52.142;11.618;2023-07-30T08:42:16;29.40;39.80
2749;DHT22;1382;52.142;11.618;2023-07-30T08:44:43;29.40;39.70
2749;DHT22;1382;52.142;11.618;2023-07-30T08:47:10;29.50;39.50
2749;DHT22;1382;52.142;11.618;2023-07-30T08:49:38;29.50;38.90
2749;DHT22;1382;52.142;11.618;2023-07-30T08:52:08;29.50;38.10
2749;DHT22;1382;52.142;11.618;2023-07-30T08:54:36;29.40;38.30
2749;DHT22;1382;52.142;11.618;2023-07-30T08:57:04;29.40;37.40
2749;DHT22;1382;52.142;11.618;2023-07-30T08:59:33;29.50;38.80
2749;DHT22;1382;52.142;11.618;2023-07-30T09:02:00;29.50;38.00
2749;DHT22;1382;52.142;11.618;2023-07-30T09:04:29;29.60;38.30
2749;DHT22;1382;52.142;11.618;2023-07-30T09:06:59;29.70;37.20
2749;DHT22;1382;52.142;11.618;2023-07-30T09:09:26;29.70;37.20
2749;DHT22;1382;52.142;11.618;2023-07-30T09:11:53;29.80;37.60
2749;DHT22;1382;52.142;11.618;2023-07-30T09:14:21;29.90;37.20
2749;DHT22;1382;52.142;11.618;2023-07-30T09:16:48;30.00;37.70
2749;DHT22;1382;52.142;11.618;2023-07-30T09:19:16;30.10;36.60
2749;DHT22;1382;52.142;11.618;2023-07-30T09:21:44;30.20;36.40
2749;DHT22;1382;52.142;11.618;2023-07-30T09:24:12;30.30;36.30
2749;DHT22;1382;52.142;11.618;2023-07-30T09:26:43;30.40;36.30
2749;DHT22;1382;52.142;11.618;2023-07-30T09:29:09;30.30;36.30
2749;DHT22;1382;52.142;11.618;2023-07-30T09:31:47;30.40;36.80
2749;DHT22;1382;52.142;11.618;2023-07-30T09:34:17;30.60;36.20
2749;DHT22;1382;52.142;11.618;2023-07-30T09:36:45;30.50;33.90
2749;DHT22;1382;52.142;11.618;2023-07-30T09:39:17;30.60;34.60
2749;DHT22;1382;52.142;11.618;2023-07-30T09:41:46;30.70;34.10
2749;DHT22;1382;52.142;11.618;2023-07-30T09:44:13;30.80;34.00
2749;DHT22;1382;52.142;11.618;2023-07-30T09:46:44;30.90;35.40
2749;DHT22;1382;52.142;11.618;2023-07-30T09:49:11;30.90;36.50
2749;DHT22;1382;52.142;11.618;2023-07-30T09:51:38;31.00;34.50
2749;DHT22;1382;52.142;11.618;2023-07-30T09:54:06;31.10;35.00
2749;DHT22;1382;52.142;11.618;2023-07-30T09:56:35;31.10;35.60
2749;DHT22;1382;52.142;11.618;2023-07-30T09:59:03;31.30;34.00
2749;DHT22;1382;52.142;11.618;2023-07-30T10:01:31;31.30;34.20
2749;DHT22;1382;52.142;11.618;2023-07-30T10:04:03;31.40;34.00
2749;DHT22;1382;52.142;11.618;2023-07-30T10:06:31;31.40;33.50
2749;DHT22;1382;52.142;11.618;2023-07-30T10:08:59;31.50;33.50
2749;DHT22;1382;52.142;11.618;2023-07-30T10:11:27;31.50;34.40
2749;DHT22;1382;52.142;11.618;2023-07-30T10:13:56;31.50;35.10
2749;DHT22;1382;52.142;11.618;2023-07-30T10:16:25;31.60;35.50
2749;DHT22;1382;52.142;11.618;2023-07-30T10:18:55;31.70;34.00
2749;DHT22;1382;52.142;11.618;2023-07-30T10:21:24;31.80;34.70
2749;DHT22;1382;52.142;11.618;2023-07-30T10:23:59;31.80;33.40
2749;DHT22;1382;52.142;11.618;2023-07-30T10:26:30;31.90;34.20
2749;DHT22;1382;52.142;11.618;2023-07-30T10:29:17;32.00;35.20
2749;DHT22;1382;52.142;11.618;2023-07-30T10:31:48;32.10;33.20
2749;DHT22;1382;52.142;11.618;2023-07-30T10:34:15;32.10;33.00
2749;DHT22;1382;52.142;11.618;2023-07-30T10:36:44;32.10;32.00
2749;DHT22;1382;52.142;11.618;2023-07-30T10:39:15;32.20;32.80
2749;DHT22;1382;52.142;11.618;2023-07-30T10:41:46;32.20;32.40
2749;DHT22;1382;52.142;11.618;2023-07-30T10:44:23;32.20;34.10
2749;DHT22;1382;52.142;11.618;2023-07-30T10:46:50;32.30;32.30
2749;DHT22;1382;52.142;11.618;2023-07-30T10:49:17;32.30;31.10
2749;DHT22;1382;52.142;11.618;2023-07-30T10:51:44;32.30;32.90
2749;DHT22;1382;52.142;11.618;2023-07-30T10:54:11;32.40;33.70
2749;DHT22;1382;52.142;11.618;2023-07-30T10:56:38;32.40;32.30
2749;DHT22;1382;52.142;11.618;2023-07-30T10:59:06;32.50;32.80
2749;DHT22;1382;52.142;11.618;2023-07-30T11:01:37;32.60;34.50
2749;DHT22;1382;52.142;11.618;2023-07-30T11:04:09;32.70;31.40
2749;DHT22;1382;52.142;11.618;2023-07-30T11:06:36;32.70;31.40
2749;DHT22;1382;52.142;11.618;2023-07-30T11:09:03;32.70;30.00
2749;DHT22;1382;52.142;11.618;2023-07-30T11:11:30;32.80;29.70
2749;DHT22;1382;52.142;11.618;2023-07-30T11:13:57;32.70;31.20
2749;DHT22;1382;52.142;11.618;2023-07-30T11:16:24;32.70;32.00
2749;DHT22;1382;52.142;11.618;2023-07-30T11:18:52;32.70;31.50
2749;DHT22;1382;52.142;11.618;2023-07-30T11:21:19;32.80;32.50
2749;DHT22;1382;52.142;11.618;2023-07-30T11:23:46;32.80;30.50
2749;DHT22;1382;52.142;11.618;2023-07-30T11:26:15;32.70;30.00
2749;DHT22;1382;52.142;11.618;2023-07-30T11:28:43;32.70;29.90
2749;DHT22;1382;52.142;11.618;2023-07-30T11:31:12;32.60;31.60
2749;DHT22;1382;52.142;11.618;2023-07-30T11:33:41;32.50;31.90
2749;DHT22;1382;52.142;11.618;2023-07-30T11:36:11;32.50;30.00
2749;DHT22;1382;52.142;11.618;2023-07-30T11:38:38;32.30;30.00
2749;DHT22;1382;52.142;11.618;2023-07-30T11:41:06;32.10;31.30
2749;DHT22;1382;52.142;11.618;2023-07-30T11:43:36;32.00;31.60
2749;DHT22;1382;52.142;11.618;2023-07-30T11:46:07;31.80;32.20
2749;DHT22;1382;52.142;11.618;2023-07-30T11:48:34;31.60;32.60
2749;DHT22;1382;52.142;11.618;2023-07-30T11:51:01;31.40;32.50
2749;DHT22;1382;52.142;11.618;2023-07-30T11:53:47;31.30;33.10
2749;DHT22;1382;52.142;11.618;2023-07-30T11:56:22;31.10;34.10
2749;DHT22;1382;52.142;11.618;2023-07-30T11:58:50;30.90;33.90
2749;DHT22;1382;52.142;11.618;2023-07-30T12:01:18;30.80;34.50
2749;DHT22;1382;52.142;11.618;2023-07-30T12:03:45;30.70;35.30
2749;DHT22;1382;52.142;11.618;2023-07-30T12:06:12;30.70;35.80
2749;DHT22;1382;52.142;11.618;2023-07-30T12:08:39;30.70;36.40
2749;DHT22;1382;52.142;11.618;2023-07-30T12:11:09;30.60;36.60
2749;DHT22;1382;52.142;11.618;2023-07-30T12:13:43;30.60;37.00
2749;DHT22;1382;52.142;11.618;2023-07-30T12:16:10;30.60;37.20
2749;DHT22;1382;52.142;11.618;2023-07-30T12:18:37;30.50;37.30
2749;DHT22;1382;52.142;11.618;2023-07-30T12:21:03;30.40;37.10
2749;DHT22;1382;52.142;11.618;2023-07-30T12:23:30;30.40;37.50
2749;DHT22;1382;52.142;11.618;2023-07-30T12:25:57;30.30;37.90
2749;DHT22;1382;52.142;11.618;2023-07-30T12:28:25;30.20;38.20
2749;DHT22;1382;52.142;11.618;2023-07-30T12:30:52;30.10;38.50
2749;DHT22;1382;52.142;11.618;2023-07-30T12:33:19;30.10;38.90
2749;DHT22;1382;52.142;11.618;2023-07-30T12:35:46;29.90;38.60
2749;DHT22;1382;52.142;11.618;2023-07-30T12:38:12;29.80;39.10
2749;DHT22;1382;52.142;11.618;2023-07-30T12:40:39;29.70;39.50
2749;DHT22;1382;52.142;11.618;2023-07-30T12:43:06;29.70;39.90
2749;DHT22;1382;52.142;11.618;2023-07-30T12:45:34;29.60;40.00
2749;DHT22;1382;52.142;11.618;2023-07-30T12:48:01;29.50;40.60
2749;DHT22;1382;52.142;11.618;2023-07-30T12:50:28;29.40;40.90
2749;DHT22;1382;52.142;11.618;2023-07-30T12:52:55;29.40;41.50
2749;DHT22;1382;52.142;11.618;2023-07-30T12:55:22;29.30;41.80
2749;DHT22;1382;52.142;11.618;2023-07-30T12:57:49;29.20;41.70
2749;DHT22;1382;52.142;11.618;2023-07-30T13:00:16;29.10;41.90
2749;DHT22;1382;52.142;11.618;2023-07-30T13:02:44;29.00;41.90
2749;DHT22;1382;52.142;11.618;2023-07-30T13:05:11;28.90;42.00
2749;DHT22;1382;52.142;11.618;2023-07-30T13:07:38;28.70;42.30
2749;DHT22;1382;52.142;11.618;2023-07-30T13:10:06;28.60;43.10
2749;DHT22;1382;52.142;11.618;2023-07-30T13:12:34;28.50;42.90
2749;DHT22;1382;52.142;11.618;2023-07-30T13:15:01;28.40;42.70
2749;DHT22;1382;52.142;11.618;2023-07-30T13:17:28;28.40;42.70
2749;DHT22;1382;52.142;11.618;2023-07-30T13:19:57;28.30;42.50
2749;DHT22;1382;52.142;11.618;2023-07-30T13:22:24;28.30;42.90
2749;DHT22;1382;52.142;11.618;2023-07-30T13:24:51;28.20;43.10
2749;DHT22;1382;52.142;11.618;2023-07-30T13:27:18;28.10;43.10
2749;DHT22;1382;52.142;11.618;2023-07-30T13:29:45;28.00;43.00
2749;DHT22;1382;52.142;11.618;2023-07-30T13:32:12;28.00;43.10
2749;DHT22;1382;52.142;11.618;2023-07-30T13:34:39;27.90;43.40
2749;DHT22;1382;52.142;11.618;2023-07-30T13:37:07;27.90;43.40
2749;DHT22;1382;52.142;11.618;2023-07-30T13:39:34;27.90;43.50
2749;DHT22;1382;52.142;11.618;2023-07-30T13:42:01;27.80;43.60
2749;DHT22;1382;52.142;11.618;2023-07-30T13:44:28;27.80;43.20
2749;DHT22;1382;52.142;11.618;2023-07-30T13:46:54;27.70;43.10
2749;DHT22;1382;52.142;11.618;2023-07-30T13:49:21;27.60;43.10
2749;DHT22;1382;52.142;11.618;2023-07-30T13:51:48;27.50;43.20
2749;DHT22;1382;52.142;11.618;2023-07-30T13:54:16;27.50;43.30
2749;DHT22;1382;52.142;11.618;2023-07-30T13:56:43;27.40;43.40
2749;DHT22;1382;52.142;11.618;2023-07-30T13:59:10;27.30;43.70
2749;DHT22;1382;52.142;11.618;2023-07-30T14:01:36;27.20;43.70
2749;DHT22;1382;52.142;11.618;2023-07-30T14:04:04;27.10;43.60
2749;DHT22;1382;52.142;11.618;2023-07-30T14:06:30;27.00;43.70
2749;DHT22;1382;52.142;11.618;2023-07-30T14:08:57;26.90;44.10
2749;DHT22;1382;52.142;11.618;2023-07-30T14:11:26;26.90;44.20
2749;DHT22;1382;52.142;11.618;2023-07-30T14:13:53;26.90;44.30
2749;DHT22;1382;52.142;11.618;2023-07-30T14:16:20;26.80;44.40
2749;DHT22;1382;52.142;11.618;2023-07-30T14:18:47;26.90;44.50
2749;DHT22;1382;52.142;11.618;2023-07-30T14:21:13;26.80;44.60
2749;DHT22;1382;52.142;11.618;2023-07-30T14:23:40;26.80;44.60
2749;DHT22;1382;52.142;11.618;2023-07-30T14:26:07;26.80;44.90
2749;DHT22;1382;52.142;11.618;2023-07-30T14:28:35;26.80;44.90
2749;DHT22;1382;52.142;11.618;2023-07-30T14:31:02;26.90;44.60
2749;DHT22;1382;52.142;11.618;2023-07-30T14:33:29;26.90;44.70
2749;DHT22;1382;52.142;11.618;2023-07-30T14:35:56;26.80;44.60
2749;DHT22;1382;52.142;11.618;2023-07-30T14:38:23;26.80;44.80
2749;DHT22;1382;52.142;11.618;2023-07-30T14:40:49;26.80;44.90
2749;DHT22;1382;52.142;11.618;2023-07-30T14:43:16;26.80;44.60
2749;DHT22;1382;52.142;11.618;2023-07-30T14:45:44;26.90;44.60
2749;DHT22;1382;52.142;11.618;2023-07-30T14:48:11;26.90;44.70
2749;DHT22;1382;52.142;11.618;2023-07-30T14:50:38;27.00;44.50
2749;DHT22;1382;52.142;11.618;2023-07-30T14:53:05;27.00;44.50
2749;DHT22;1382;52.142;11.618;2023-07-30T14:55:32;27.00;44.60
2749;DHT22;1382;52.142;11.618;2023-07-30T14:57:59;27.10;44.50
2749;DHT22;1382;52.142;11.618;2023-07-30T15:00:26;27.20;43.80
2749;DHT22;1382;52.142;11.618;2023-07-30T15:02:54;27.30;43.40
2749;DHT22;1382;52.142;11.618;2023-07-30T15:05:21;27.40;43.30
2749;DHT22;1382;52.142;11.618;2023-07-30T15:07:48;27.50;42.00
2749;DHT22;1382;52.142;11.618;2023-07-30T15:10:15;27.70;42.60
2749;DHT22;1382;52.142;11.618;2023-07-30T15:12:41;27.60;42.70
2749;DHT22;1382;52.142;11.618;2023-07-30T15:15:10;27.70;43.40
2749;DHT22;1382;52.142;11.618;2023-07-30T15:17:37;27.80;42.30
2749;DHT22;1382;52.142;11.618;2023-07-30T15:20:06;27.90;42.90
2749;DHT22;1382;52.142;11.618;2023-07-30T15:22:33;28.10;43.10
2749;DHT22;1382;52.142;11.618;2023-07-30T15:25:00;28.20;42.00
2749;DHT22;1382;52.142;11.618;2023-07-30T15:27:27;28.40;40.80
2749;DHT22;1382;52.142;11.618;2023-07-30T15:29:53;28.50;40.70
2749;DHT22;1382;52.142;11.618;2023-07-30T15:32:21;28.60;41.30
2749;DHT22;1382;52.142;11.618;2023-07-30T15:34:49;28.90;41.50
2749;DHT22;1382;52.142;11.618;2023-07-30T15:37:17;29.00;40.50
2749;DHT22;1382;52.142;11.618;2023-07-30T15:39:43;29.10;40.20
2749;DHT22;1382;52.142;11.618;2023-07-30T15:42:10;29.30;39.70
2749;DHT22;1382;52.142;11.618;2023-07-30T15:44:37;29.50;40.00
2749;DHT22;1382;52.142;11.618;2023-07-30T15:47:04;29.70;39.90